createdAt,value
2022-09-26T00:01:39.859Z,10.70
2022-09-26T00:04:30.429Z,10.70
2022-09-26T00:06:59.788Z,10.60
2022-09-26T00:09:28.681Z,10.60
2022-09-26T00:11:55.651Z,10.50
2022-09-26T00:14:30.032Z,10.50
2022-09-26T00:16:57.565Z,10.40
2022-09-26T00:19:24.749Z,10.40
2022-09-26T00:21:51.751Z,10.30
2022-09-26T00:24:19.561Z,10.30
2022-09-26T00:26:46.495Z,10.30
2022-09-26T00:29:14.602Z,10.30
2022-09-26T00:31:47.309Z,10.20
2022-09-26T00:34:19.177Z,10.30
2022-09-26T00:36:46.260Z,10.30
2022-09-26T00:39:16.476Z,10.30
2022-09-26T00:41:45.301Z,10.30
2022-09-26T00:44:39.860Z,10.20
2022-09-26T00:47:48.052Z,10.20
2022-09-26T00:50:30.325Z,10.10
2022-09-26T00:53:14.489Z,10.20
2022-09-26T00:55:57.392Z,10.10
2022-09-26T00:58:35.473Z,10.10
2022-09-26T01:01:02.927Z,10.10
2022-09-26T01:03:32.614Z,10.10
2022-09-26T01:06:01.513Z,10.10
2022-09-26T01:08:39.333Z,10.10
2022-09-26T01:11:07.488Z,10.10
2022-09-26T01:13:36.774Z,10.10
2022-09-26T01:16:03.857Z,10.00
2022-09-26T01:18:31.481Z,10.00
2022-09-26T01:21:32.172Z,10.00
2022-09-26T01:24:49.945Z,10.00
2022-09-26T01:27:57.062Z,10.00
2022-09-26T01:30:33.841Z,10.10
2022-09-26T01:33:45.589Z,10.00
2022-09-26T01:36:34.373Z,10.00
2022-09-26T01:39:42.645Z,10.00
2022-09-26T01:42:28.242Z,9.90
2022-09-26T01:45:15.077Z,9.90
2022-09-26T01:48:19.303Z,9.90
2022-09-26T01:51:14.154Z,9.80
2022-09-26T01:54:15.381Z,9.80
2022-09-26T01:56:48.341Z,9.90
2022-09-26T01:59:32.094Z,9.80
2022-09-26T02:02:10.955Z,9.80
2022-09-26T02:04:46.179Z,9.80
2022-09-26T02:07:41.521Z,9.80
2022-09-26T02:10:21.882Z,9.80
2022-09-26T02:13:01.130Z,9.80
2022-09-26T02:15:36.504Z,9.80
2022-09-26T02:18:31.218Z,9.80
2022-09-26T02:21:10.760Z,9.80
2022-09-26T02:23:37.718Z,9.80
2022-09-26T02:26:04.983Z,9.80
2022-09-26T02:28:32.285Z,9.80
2022-09-26T02:31:03.922Z,9.80
2022-09-26T02:33:31.575Z,9.80
2022-09-26T02:35:58.617Z,9.80
2022-09-26T02:38:31.229Z,9.80
2022-09-26T02:41:36.363Z,9.70
2022-09-26T02:45:12.532Z,9.70
2022-09-26T02:48:22.524Z,9.80
2022-09-26T02:51:36.360Z,9.80
2022-09-26T02:54:23.517Z,9.80
2022-09-26T02:57:30.323Z,9.80
2022-09-26T03:00:25.403Z,9.80
2022-09-26T03:03:22.052Z,9.80
2022-09-26T03:05:57.423Z,9.80
2022-09-26T03:08:35.956Z,9.80
2022-09-26T03:11:08.099Z,9.80
2022-09-26T03:13:40.224Z,9.80
2022-09-26T03:16:10.045Z,9.80
2022-09-26T03:19:16.708Z,9.80
2022-09-26T03:21:45.139Z,9.80
2022-09-26T03:24:14.545Z,9.80
2022-09-26T03:26:42.512Z,9.80
2022-09-26T03:29:09.646Z,9.80
2022-09-26T03:31:36.792Z,9.80
2022-09-26T03:34:03.693Z,9.80
2022-09-26T03:36:32.008Z,9.80
2022-09-26T03:38:59.105Z,9.80
2022-09-26T03:41:26.072Z,9.80
2022-09-26T03:43:53.040Z,9.80
2022-09-26T03:46:19.952Z,9.80
2022-09-26T03:48:46.940Z,9.80
2022-09-26T03:51:14.904Z,9.70
2022-09-26T03:53:47.077Z,9.70
2022-09-26T03:56:18.704Z,9.80
2022-09-26T03:58:47.185Z,9.80
2022-09-26T04:01:19.170Z,9.80
2022-09-26T04:03:50.951Z,9.80
2022-09-26T04:06:20.892Z,9.70
2022-09-26T04:08:52.089Z,9.70
2022-09-26T04:11:24.419Z,9.70
2022-09-26T04:13:54.096Z,9.70
2022-09-26T04:16:23.668Z,9.70
2022-09-26T04:18:57.278Z,9.70
2022-09-26T04:21:27.075Z,9.70
2022-09-26T04:23:55.268Z,9.70
2022-09-26T04:26:24.583Z,9.70
2022-09-26T04:28:55.749Z,9.70
2022-09-26T04:31:27.397Z,9.60
2022-09-26T04:33:55.283Z,9.60
2022-09-26T04:36:23.103Z,9.60
2022-09-26T04:38:50.077Z,9.50
2022-09-26T04:41:21.994Z,9.50
2022-09-26T04:43:49.521Z,9.50
2022-09-26T04:46:29.601Z,9.50
2022-09-26T04:49:00.741Z,9.60
2022-09-26T04:51:31.781Z,9.50
2022-09-26T04:53:59.168Z,9.50
2022-09-26T04:56:29.871Z,9.50
2022-09-26T04:58:59.061Z,9.40
2022-09-26T05:01:27.788Z,9.40
2022-09-26T05:03:58.251Z,9.40
2022-09-26T05:06:25.476Z,9.40
2022-09-26T05:08:52.461Z,9.30
2022-09-26T05:11:21.337Z,9.30
2022-09-26T05:13:53.649Z,9.20
2022-09-26T05:16:21.405Z,9.20
2022-09-26T05:18:52.210Z,9.10
2022-09-26T05:21:19.304Z,9.00
2022-09-26T05:24:04.799Z,9.00
2022-09-26T05:26:44.099Z,9.00
2022-09-26T05:29:12.415Z,9.00
2022-09-26T05:31:40.526Z,9.00
2022-09-26T05:34:15.507Z,9.00
2022-09-26T05:36:45.763Z,8.90
2022-09-26T05:39:31.519Z,8.90
2022-09-26T05:41:59.611Z,9.00
2022-09-26T05:44:28.170Z,9.10
2022-09-26T05:46:57.134Z,9.20
2022-09-26T05:49:24.162Z,9.20
2022-09-26T05:51:52.419Z,9.20
2022-09-26T05:54:19.683Z,9.30
2022-09-26T05:56:46.584Z,9.30
2022-09-26T05:59:13.820Z,9.40
2022-09-26T06:01:41.018Z,9.60
2022-09-26T06:04:10.174Z,9.70
2022-09-26T06:06:37.899Z,9.80
2022-09-26T06:09:07.040Z,9.80
2022-09-26T06:11:34.098Z,9.80
2022-09-26T06:14:01.265Z,9.90
2022-09-26T06:16:29.547Z,9.80
2022-09-26T06:18:56.697Z,9.90
2022-09-26T06:21:23.932Z,10.00
2022-09-26T06:23:51.147Z,10.00
2022-09-26T06:26:25.543Z,9.90
2022-09-26T06:29:00.657Z,9.80
2022-09-26T06:31:29.773Z,9.70
2022-09-26T06:33:57.053Z,9.70
2022-09-26T06:36:24.601Z,9.70
2022-09-26T06:38:54.012Z,9.70
2022-09-26T06:41:20.905Z,9.70
2022-09-26T06:43:48.973Z,9.70
2022-09-26T06:46:16.728Z,9.80
2022-09-26T06:48:43.900Z,9.90
2022-09-26T06:51:13.300Z,10.10
2022-09-26T06:53:40.963Z,10.20
2022-09-26T06:56:08.147Z,10.40
2022-09-26T06:58:35.070Z,10.60
2022-09-26T07:01:02.614Z,10.70
2022-09-26T07:03:30.051Z,10.70
2022-09-26T07:05:58.532Z,10.80
2022-09-26T07:08:49.916Z,10.80
2022-09-26T07:11:35.282Z,10.80
2022-09-26T07:14:01.923Z,10.80
2022-09-26T07:16:30.520Z,11.00
2022-09-26T07:18:57.890Z,11.40
2022-09-26T07:21:24.956Z,11.50
2022-09-26T07:23:57.084Z,11.60
2022-09-26T07:26:24.240Z,11.50
2022-09-26T07:28:54.706Z,11.60
2022-09-26T07:31:26.673Z,11.60
2022-09-26T07:33:53.873Z,12.20
2022-09-26T07:36:21.194Z,13.10
2022-09-26T07:38:49.165Z,13.30
2022-09-26T07:41:17.469Z,13.10
2022-09-26T07:46:50.409Z,12.90
2022-09-26T07:49:37.585Z,13.50
2022-09-26T07:52:04.461Z,15.00
2022-09-26T07:54:31.481Z,16.20
2022-09-26T07:56:58.741Z,16.90
2022-09-26T07:59:25.616Z,17.70
2022-09-26T08:03:58.161Z,19.50
2022-09-26T08:06:27.473Z,19.20
2022-09-26T08:08:58.116Z,19.40
2022-09-26T08:11:25.606Z,19.10
2022-09-26T08:13:52.574Z,18.30
2022-09-26T08:16:22.795Z,17.30
2022-09-26T08:18:51.919Z,16.90
2022-09-26T08:21:21.803Z,17.30
2022-09-26T08:23:48.773Z,17.90
2022-09-26T08:26:16.678Z,18.10
2022-09-26T08:28:43.936Z,18.30
2022-09-26T08:31:11.932Z,18.90
2022-09-26T08:33:39.097Z,19.10
2022-09-26T08:36:13.030Z,19.50
2022-09-26T08:38:40.250Z,20.10
2022-09-26T08:41:52.854Z,20.30
2022-09-26T08:44:56.815Z,19.20
2022-09-26T08:47:49.553Z,17.90
2022-09-26T08:50:47.214Z,17.30
2022-09-26T08:53:30.532Z,16.80
2022-09-26T08:56:03.625Z,18.10
2022-09-26T08:58:45.310Z,18.10
2022-09-26T09:01:27.831Z,18.00
2022-09-26T09:04:20.608Z,19.30
2022-09-26T09:06:58.432Z,18.40
2022-09-26T09:09:25.361Z,17.20
2022-09-26T09:12:33.546Z,16.90
2022-09-26T09:15:38.650Z,19.30
2022-09-26T09:18:27.684Z,20.90
2022-09-26T09:21:23.144Z,20.50
2022-09-26T09:24:12.853Z,21.70
2022-09-26T09:30:46.930Z,22.40
2022-09-26T09:33:33.659Z,24.60
2022-09-26T09:36:08.734Z,25.40
2022-09-26T09:38:42.459Z,23.70
2022-09-26T09:41:15.141Z,22.60
2022-09-26T09:43:51.770Z,21.50
2022-09-26T09:46:28.900Z,20.30
2022-09-26T09:49:20.894Z,19.80
2022-09-26T09:52:34.032Z,19.50
2022-09-26T09:56:08.152Z,19.10
2022-09-26T09:59:17.080Z,18.90
2022-09-26T10:01:59.903Z,19.80
2022-09-26T10:04:44.213Z,20.50
2022-09-26T10:07:11.263Z,21.00
2022-09-26T10:09:46.130Z,21.50
2022-09-26T10:12:28.683Z,21.10
2022-09-26T10:15:19.735Z,20.70
2022-09-26T10:18:26.733Z,20.30
2022-09-26T10:21:12.677Z,19.80
2022-09-26T10:23:46.700Z,19.10
2022-09-26T10:26:16.132Z,19.00
2022-09-26T10:28:56.823Z,20.60
2022-09-26T10:31:42.583Z,23.30
2022-09-26T10:34:33.134Z,23.20
2022-09-26T10:37:28.924Z,21.90
2022-09-26T10:40:17.278Z,22.20
2022-09-26T10:42:46.988Z,21.10
2022-09-26T10:45:19.964Z,20.70
2022-09-26T10:47:51.242Z,22.50
2022-09-26T10:50:27.911Z,23.00
2022-09-26T10:53:10.824Z,23.40
2022-09-26T10:55:51.155Z,22.80
2022-09-26T10:58:29.536Z,24.00
2022-09-26T11:01:00.641Z,25.90
2022-09-26T11:03:45.569Z,26.20
2022-09-26T11:06:44.129Z,25.70
2022-09-26T11:09:19.009Z,27.70
2022-09-26T11:11:48.825Z,28.00
2022-09-26T11:14:29.022Z,27.80
2022-09-26T11:16:57.326Z,28.70
2022-09-26T11:19:54.507Z,27.90
2022-09-26T11:22:44.369Z,26.10
2022-09-26T11:25:43.136Z,24.60
2022-09-26T11:28:24.749Z,23.40
2022-09-26T11:31:03.157Z,22.20
2022-09-26T11:33:30.254Z,22.00
2022-09-26T11:36:16.630Z,22.10
2022-09-26T11:39:37.587Z,21.50
2022-09-26T11:43:06.686Z,20.50
2022-09-26T11:46:25.316Z,20.20
2022-09-26T11:49:29.962Z,19.80
2022-09-26T11:52:21.254Z,21.90
2022-09-26T11:55:24.184Z,20.70
2022-09-26T11:58:20.529Z,19.90
2022-09-26T12:01:08.238Z,20.30
2022-09-26T12:04:21.534Z,25.00
2022-09-26T12:07:19.169Z,25.80
2022-09-26T12:10:32.939Z,25.20
2022-09-26T12:13:47.026Z,23.90
2022-09-26T12:16:45.534Z,22.10
2022-09-26T12:19:57.219Z,22.90
2022-09-26T12:23:14.075Z,23.40
2022-09-26T12:26:31.773Z,23.20
2022-09-26T12:29:30.279Z,26.30
2022-09-26T12:32:27.162Z,28.30
2022-09-26T12:35:29.878Z,29.00
2022-09-26T12:38:33.498Z,29.60
2022-09-26T12:41:42.528Z,29.50
2022-09-26T12:45:08.850Z,30.10
2022-09-26T12:48:14.939Z,29.20
2022-09-26T12:51:15.999Z,28.10
2022-09-26T12:54:13.455Z,25.60
2022-09-26T12:57:38.416Z,26.50
2022-09-26T13:00:21.865Z,28.80
2022-09-26T13:03:46.584Z,30.10
2022-09-26T13:07:02.417Z,30.30
2022-09-26T13:10:25.663Z,28.70
2022-09-26T13:13:22.980Z,29.50
2022-09-26T13:16:24.934Z,30.20
2022-09-26T13:19:23.981Z,26.20
2022-09-26T13:22:04.370Z,24.50
2022-09-26T13:24:54.629Z,24.90
2022-09-26T13:27:37.226Z,27.20
2022-09-26T13:30:24.220Z,26.60
2022-09-26T13:33:18.316Z,26.70
2022-09-26T13:35:48.267Z,26.30
2022-09-26T13:38:22.662Z,26.40
2022-09-26T13:41:26.564Z,24.40
2022-09-26T13:44:44.577Z,23.30
2022-09-26T13:47:56.441Z,25.80
2022-09-26T13:50:46.237Z,26.90
2022-09-26T13:53:56.149Z,27.90
2022-09-26T13:56:35.044Z,27.50
2022-09-26T13:59:26.988Z,27.60
2022-09-26T14:02:24.287Z,27.70
2022-09-26T14:05:20.158Z,23.50
2022-09-26T14:08:11.298Z,21.30
2022-09-26T14:11:11.792Z,21.00
2022-09-26T14:13:38.751Z,22.90
2022-09-26T14:16:28.467Z,25.80
2022-09-26T14:19:11.422Z,27.70
2022-09-26T14:22:20.370Z,26.70
2022-09-26T14:24:49.534Z,23.00
2022-09-26T14:27:28.253Z,20.40
2022-09-26T14:30:36.105Z,18.90
2022-09-26T14:33:12.833Z,17.90
2022-09-26T14:35:39.942Z,17.60
2022-09-26T14:38:20.643Z,17.40
2022-09-26T14:40:59.998Z,17.30
2022-09-26T14:43:31.119Z,17.10
2022-09-26T14:46:00.953Z,17.10
2022-09-26T14:48:43.003Z,16.90
2022-09-26T14:51:16.544Z,17.00
2022-09-26T14:54:14.077Z,17.00
2022-09-26T14:56:57.678Z,16.90
2022-09-26T14:59:24.573Z,16.90
2022-09-26T15:02:10.540Z,16.80
2022-09-26T15:04:38.871Z,16.70
2022-09-26T15:07:19.636Z,16.80
2022-09-26T15:10:05.469Z,17.30
2022-09-26T15:13:00.820Z,17.70
2022-09-26T15:16:07.760Z,18.70
2022-09-26T15:18:45.034Z,20.50
2022-09-26T15:21:32.830Z,20.70
2022-09-26T15:24:21.387Z,20.30
2022-09-26T15:26:49.957Z,20.60
2022-09-26T15:29:17.277Z,21.30
2022-09-26T15:31:47.117Z,21.60
2022-09-26T15:34:19.614Z,21.40
2022-09-26T15:36:56.007Z,20.70
2022-09-26T15:39:31.958Z,19.80
2022-09-26T15:42:25.019Z,18.60
2022-09-26T15:45:01.888Z,17.60
2022-09-26T15:47:31.884Z,16.80
2022-09-26T15:50:48.879Z,16.40
2022-09-26T15:53:40.164Z,16.30
2022-09-26T15:56:13.669Z,17.30
2022-09-26T15:58:55.320Z,17.40
2022-09-26T16:01:28.575Z,17.10
2022-09-26T16:04:15.724Z,17.30
2022-09-26T16:06:55.711Z,16.70
2022-09-26T16:09:34.012Z,16.30
2022-09-26T16:12:15.890Z,16.30
2022-09-26T16:14:53.135Z,16.10
2022-09-26T16:17:38.513Z,15.80
2022-09-26T16:20:16.967Z,15.70
2022-09-26T16:22:52.957Z,15.90
2022-09-26T16:25:31.883Z,16.00
2022-09-26T16:28:39.791Z,15.60
2022-09-26T16:31:08.254Z,15.10
2022-09-26T16:33:39.909Z,14.60
2022-09-26T16:36:21.187Z,14.30
2022-09-26T16:39:23.077Z,13.90
2022-09-26T16:42:05.478Z,13.70
2022-09-26T16:44:42.056Z,13.50
2022-09-26T16:47:40.108Z,13.50
2022-09-26T16:50:33.110Z,13.50
2022-09-26T16:53:06.668Z,13.40
2022-09-26T16:55:36.216Z,13.30
2022-09-26T16:58:05.492Z,13.30
2022-09-26T17:00:54.114Z,13.10
2022-09-26T17:03:24.336Z,12.70
2022-09-26T17:05:57.861Z,12.40
2022-09-26T17:08:27.639Z,12.10
2022-09-26T17:11:01.165Z,11.60
2022-09-26T17:13:35.041Z,11.30
2022-09-26T17:16:03.549Z,11.00
2022-09-26T17:18:33.040Z,10.70
2022-09-26T17:21:01.140Z,10.50
2022-09-26T17:23:40.552Z,10.30
2022-09-26T17:26:23.803Z,10.10
2022-09-26T17:28:53.252Z,10.00
2022-09-26T17:31:20.691Z,9.80
2022-09-26T17:33:53.417Z,9.70
2022-09-26T17:36:27.851Z,9.60
2022-09-26T17:38:59.143Z,9.50
2022-09-26T17:41:27.718Z,9.50
2022-09-26T17:44:00.756Z,9.50
2022-09-26T17:46:28.683Z,9.50
2022-09-26T17:48:56.128Z,9.50
2022-09-26T17:51:24.286Z,9.50
2022-09-26T17:53:52.308Z,9.40
2022-09-26T17:56:20.375Z,9.40
2022-09-26T17:58:49.471Z,9.40
2022-09-26T18:01:27.711Z,9.30
2022-09-26T18:04:06.177Z,9.30
2022-09-26T18:06:34.218Z,9.30
2022-09-26T18:09:09.905Z,9.30
2022-09-26T18:11:38.342Z,9.30
2022-09-26T18:14:07.844Z,9.30
2022-09-26T18:16:35.128Z,9.30
2022-09-26T18:19:06.855Z,9.40
2022-09-26T18:21:35.391Z,9.40
2022-09-26T18:24:06.765Z,9.40
2022-09-26T18:26:47.332Z,9.40
2022-09-26T18:29:33.230Z,9.40
2022-09-26T18:32:02.658Z,9.50
2022-09-26T18:34:29.623Z,9.50
2022-09-26T18:36:59.974Z,9.60
2022-09-26T18:39:28.479Z,9.60
2022-09-26T18:42:05.986Z,9.60
2022-09-26T18:44:34.873Z,9.60
2022-09-26T18:47:10.580Z,9.60
2022-09-26T18:49:38.348Z,9.60
2022-09-26T18:52:14.931Z,9.60
2022-09-26T18:54:44.907Z,9.60
2022-09-26T18:57:33.260Z,9.60
2022-09-26T19:00:00.422Z,9.60
2022-09-26T19:02:38.430Z,9.50
2022-09-26T19:05:11.607Z,9.50
2022-09-26T19:07:40.296Z,9.50
2022-09-26T19:10:17.160Z,9.60
2022-09-26T19:12:44.144Z,9.60
2022-09-26T19:15:15.749Z,9.70
2022-09-26T19:17:43.290Z,9.70
2022-09-26T19:20:10.333Z,9.70
2022-09-26T19:22:37.467Z,9.80
2022-09-26T19:25:05.021Z,9.80
2022-09-26T19:27:53.319Z,9.80
2022-09-26T19:30:21.673Z,9.90
2022-09-26T19:32:53.548Z,9.90
2022-09-26T19:35:32.696Z,9.90
2022-09-26T19:38:04.361Z,10.00
2022-09-26T19:40:31.405Z,10.00
2022-09-26T19:42:58.689Z,10.00
2022-09-26T19:45:26.860Z,10.00
2022-09-26T19:47:56.052Z,10.10
2022-09-26T19:50:27.851Z,10.10
2022-09-26T19:53:00.915Z,10.20
2022-09-26T19:55:31.459Z,10.20
2022-09-26T19:58:16.115Z,10.20
2022-09-26T20:00:44.645Z,10.20
2022-09-26T20:03:39.687Z,10.20
2022-09-26T20:06:25.104Z,10.30
2022-09-26T20:09:01.609Z,10.30
2022-09-26T20:11:28.984Z,10.30
2022-09-26T20:14:14.819Z,10.30
2022-09-26T20:16:42.867Z,10.40
2022-09-26T20:19:40.204Z,10.40
2022-09-26T20:22:16.438Z,10.40
2022-09-26T20:24:47.332Z,10.40
2022-09-26T20:27:29.264Z,10.40
2022-09-26T20:30:15.322Z,10.40
2022-09-26T20:32:42.942Z,10.40
2022-09-26T20:35:15.883Z,10.40
2022-09-26T20:37:44.336Z,10.40
2022-09-26T20:40:21.314Z,10.40
2022-09-26T20:43:00.050Z,10.40
2022-09-26T20:45:37.708Z,10.40
2022-09-26T20:48:14.047Z,10.30
2022-09-26T20:50:40.950Z,10.40
2022-09-26T20:53:24.093Z,10.30
2022-09-26T20:55:53.925Z,10.30
2022-09-26T20:58:21.986Z,10.30
2022-09-26T21:00:53.131Z,10.30
2022-09-26T21:03:24.994Z,10.30
2022-09-26T21:05:52.222Z,10.30
2022-09-26T21:08:30.281Z,10.30
2022-09-26T21:10:57.707Z,10.30
2022-09-26T21:13:24.637Z,10.30
2022-09-26T21:15:52.912Z,10.30
2022-09-26T21:18:29.886Z,10.30
2022-09-26T21:21:07.357Z,10.30
2022-09-26T21:23:43.335Z,10.30
2022-09-26T21:26:31.059Z,10.30
2022-09-26T21:28:58.207Z,10.30
2022-09-26T21:31:35.353Z,10.30
2022-09-26T21:34:03.315Z,10.30
2022-09-26T21:36:39.233Z,10.30
2022-09-26T21:39:06.541Z,10.20
2022-09-26T21:41:35.470Z,10.20
2022-09-26T21:44:16.954Z,10.30
2022-09-26T21:46:44.538Z,10.30
2022-09-26T21:49:11.421Z,10.30
2022-09-26T21:51:38.675Z,10.30
2022-09-26T21:54:33.366Z,10.30
2022-09-26T21:57:17.962Z,10.30
2022-09-26T21:59:45.914Z,10.30
2022-09-26T22:02:12.864Z,10.30
2022-09-26T22:04:40.199Z,10.40
2022-09-26T22:07:07.341Z,10.40
2022-09-26T22:09:34.319Z,10.30
2022-09-26T22:12:01.658Z,10.40
2022-09-26T22:14:28.599Z,10.40
2022-09-26T22:16:56.146Z,10.40
2022-09-26T22:19:23.591Z,10.40
2022-09-26T22:21:51.096Z,10.40
2022-09-26T22:24:18.318Z,10.50
2022-09-26T22:26:45.691Z,10.50
2022-09-26T22:29:13.398Z,10.60
2022-09-26T22:31:42.110Z,10.60
2022-09-26T22:34:09.480Z,10.60
2022-09-26T22:36:36.487Z,10.60
2022-09-26T22:39:03.787Z,10.60
2022-09-26T22:41:30.639Z,10.60
2022-09-26T22:43:57.675Z,10.60
2022-09-26T22:46:24.664Z,10.60
2022-09-26T22:48:51.531Z,10.60
2022-09-26T22:51:18.550Z,10.50
2022-09-26T22:53:45.595Z,10.50
2022-09-26T22:56:15.018Z,10.50
2022-09-26T22:58:50.269Z,10.50
2022-09-26T23:01:28.342Z,10.50
2022-09-26T23:03:58.610Z,10.50
2022-09-26T23:06:26.976Z,10.50
2022-09-26T23:08:54.368Z,10.50
2022-09-26T23:11:21.843Z,10.50
2022-09-26T23:13:52.555Z,10.60
2022-09-26T23:16:28.415Z,10.50
2022-09-26T23:18:57.095Z,10.50
2022-09-26T23:21:27.101Z,10.50
2022-09-26T23:24:00.432Z,10.50
2022-09-26T23:26:31.830Z,10.40
2022-09-26T23:29:00.230Z,10.30
2022-09-26T23:31:28.792Z,10.20
2022-09-26T23:33:57.319Z,10.10
2022-09-26T23:36:25.260Z,10.00
2022-09-26T23:38:52.568Z,9.90
2022-09-26T23:41:19.552Z,9.80
2022-09-26T23:43:46.504Z,9.70
2022-09-26T23:46:14.410Z,9.60
2022-09-26T23:48:42.008Z,9.60
2022-09-26T23:51:09.608Z,9.50
2022-09-26T23:53:37.400Z,9.50
2022-09-26T23:56:10.572Z,9.40
2022-09-26T23:58:38.253Z,9.40
